Time;durP1;ratioP1;P1;durP2;ratioP2;P2;SDS_P1;SDS_P2;PMS_P1;PMS_P2;Temp;Humidity;BMP_temperature;BMP_pressure;BME280_temperature;BME280_humidity;BME280_pressure;Samples;Min_cycle;Max_cycle;Signal;HPM_P1;HPM_P2
2022/10/14 00:01:16;;;;;;;85.47;48.58;;;;;;;11.91;100.00;101316.81;2087267;28;20808;-75
2022/10/14 00:02:19;;;;;;;78.82;48.75;;;;;;;11.92;100.00;101315.91;2079732;28;40868;-74
2022/10/14 00:03:21;;;;;;;75.47;47.42;;;;;;;11.91;100.00;101308.78;2079753;28;35057;-75
2022/10/14 00:04:23;;;;;;;77.85;47.97;;;;;;;11.90;100.00;101318.63;2079812;28;36483;-74
2022/10/14 00:05:25;;;;;;;78.47;48.58;;;;;;;11.90;100.00;101315.94;2079558;28;38419;-74
2022/10/14 00:06:32;;;;;;;85.60;50.85;;;;;;;11.92;100.00;101323.97;2079056;28;36611;-74
2022/10/14 00:07:35;;;;;;;85.53;50.55;;;;;;;11.92;100.00;101315.91;2079152;28;40046;-74
2022/10/14 00:08:38;;;;;;;77.40;48.78;;;;;;;11.92;100.00;101313.25;2078911;28;39262;-74
2022/10/14 00:09:45;;;;;;;78.93;48.92;;;;;;;11.92;100.00;101315.91;2079504;28;20049;-74
2022/10/14 00:10:47;;;;;;;72.53;47.63;;;;;;;11.91;100.00;101306.97;2080529;28;20037;-74
2022/10/14 00:11:51;;;;;;;73.90;48.78;;;;;;;11.91;100.00;101311.47;2080232;28;20046;-74
2022/10/14 00:12:53;;;;;;;81.13;50.25;;;;;;;11.91;100.00;101314.16;2079552;28;36186;-74
2022/10/14 00:14:03;;;;;;;85.22;49.50;;;;;;;11.92;100.00;101313.25;2080325;28;20045;-73
2022/10/14 00:15:06;;;;;;;78.03;49.10;;;;;;;11.92;100.00;101313.25;2080259;28;29738;-74
2022/10/14 00:16:28;;;;;;;80.18;49.78;;;;;;;11.91;100.00;101311.47;2079371;28;40602;-74
2022/10/14 00:17:29;;;;;;;71.65;45.03;;;;;;;11.91;100.00;101312.34;2079425;28;27988;-73
2022/10/14 00:18:32;;;;;;;77.35;48.28;;;;;;;11.91;100.00;101309.66;2079285;28;20930;-74
2022/10/14 00:19:34;;;;;;;81.57;49.20;;;;;;;11.91;100.00;101317.69;2080037;28;35230;-74
2022/10/14 00:20:35;;;;;;;78.65;49.25;;;;;;;11.91;100.00;101311.47;2079655;28;33932;-74
2022/10/14 00:21:40;;;;;;;86.85;50.03;;;;;;;11.90;100.00;101310.59;2078965;28;39818;-73
2022/10/14 00:22:43;;;;;;;78.28;46.80;;;;;;;11.90;100.00;101313.28;2079547;28;20046;-74
2022/10/14 00:23:45;;;;;;;80.32;48.90;;;;;;;11.90;100.00;101306.97;2079702;28;35439;-74
2022/10/14 00:24:47;;;;;;;78.18;48.80;;;;;;;11.90;100.00;101315.94;2079344;28;33424;-74
2022/10/14 00:25:49;;;;;;;86.07;50.33;;;;;;;11.90;100.00;101313.28;2079857;28;33119;-74
2022/10/14 00:26:51;;;;;;;82.95;51.03;;;;;;;11.90;100.00;101315.00;2079651;28;20115;-74
2022/10/14 00:27:53;;;;;;;85.20;50.45;;;;;;;11.89;100.00;101308.78;2079532;28;20093;-74
2022/10/14 00:28:56;;;;;;;80.85;50.95;;;;;;;11.89;100.00;101311.47;2079763;28;20049;-74
2022/10/14 00:30:02;;;;;;;82.53;50.22;;;;;;;11.89;100.00;101305.22;2080299;28;20045;-74
2022/10/14 00:31:04;;;;;;;78.60;49.72;;;;;;;11.89;100.00;101313.25;2079076;28;22998;-74
2022/10/14 00:32:06;;;;;;;82.47;49.78;;;;;;;11.89;100.00;101307.91;2079603;28;20038;-74
2022/10/14 00:33:07;;;;;;;79.90;50.10;;;;;;;11.89;100.00;101313.25;2079267;28;27081;-74
2022/10/14 00:34:11;;;;;;;85.70;50.67;;;;;;;11.89;100.00;101308.78;2079629;28;20046;-74
2022/10/14 00:35:13;;;;;;;75.30;47.80;;;;;;;11.90;100.00;101304.28;2078924;28;32810;-74
2022/10/14 00:36:19;;;;;;;83.28;49.88;;;;;;;11.90;100.00;101312.34;2080181;28;21486;-74
2022/10/14 00:37:21;;;;;;;74.45;45.85;;;;;;;11.90;100.00;101307.91;2080300;28;20876;-74
2022/10/14 00:38:23;;;;;;;75.43;49.08;;;;;;;11.90;100.00;101304.28;2080111;28;31183;-74
2022/10/14 00:39:27;;;;;;;83.53;49.13;;;;;;;11.91;100.00;101312.34;2080111;28;20034;-74
2022/10/14 00:40:30;;;;;;;82.88;49.33;;;;;;;11.91;100.00;101308.78;2079603;28;20042;-74
2022/10/14 00:41:34;;;;;;;85.93;51.42;;;;;;;11.90;100.00;101310.59;2078631;28;38685;-74
2022/10/14 00:42:36;;;;;;;77.10;50.25;;;;;;;11.91;100.00;101314.16;2078718;28;33069;-74
2022/10/14 00:44:01;;;;;;;86.93;51.13;;;;;;;11.90;100.00;101312.34;2079049;28;30360;-74
2022/10/14 00:45:12;;;;;;;70.22;46.03;;;;;;;11.90;100.00;101307.91;2080506;28;20042;-73
2022/10/14 00:46:14;;;;;;;78.97;50.28;;;;;;;11.90;100.00;101315.94;2080229;28;24237;-73
2022/10/14 00:47:17;;;;;;;74.82;46.15;;;;;;;11.90;100.00;101309.66;2080001;28;20855;-73
2022/10/14 00:48:23;;;;;;;79.97;49.05;;;;;;;11.90;100.00;101310.59;2087215;28;29777;-74
2022/10/14 00:49:32;;;;;;;83.78;51.53;;;;;;;11.90;100.00;101315.00;2079072;28;20653;-74
2022/10/14 00:50:36;;;;;;;87.63;52.38;;;;;;;11.89;100.00;101306.09;2079723;28;20037;-74
2022/10/14 00:51:41;;;;;;;73.70;49.00;;;;;;;11.90;100.00;101309.66;2079955;28;20034;-73
2022/10/14 00:52:44;;;;;;;79.70;49.75;;;;;;;11.90;100.00;101309.66;2079664;28;29215;-73
2022/10/14 00:53:47;;;;;;;85.45;51.38;;;;;;;11.90;100.00;101315.00;2079644;28;20961;-74
2022/10/14 00:54:53;;;;;;;80.65;48.42;;;;;;;11.90;100.00;101306.97;2079133;28;27034;-73
2022/10/14 00:55:55;;;;;;;79.05;49.83;;;;;;;11.91;100.00;101306.09;2079721;28;25605;-73
2022/10/14 00:56:57;;;;;;;91.03;52.30;;;;;;;11.90;100.00;101312.34;2079373;28;23707;-74
2022/10/14 00:57:59;;;;;;;82.75;51.22;;;;;;;11.90;100.00;101306.97;2078657;28;30135;-74
2022/10/14 00:59:05;;;;;;;76.93;49.83;;;;;;;11.88;100.00;101304.34;2079730;28;20153;-73
2022/10/14 01:00:14;;;;;;;79.65;49.47;;;;;;;11.90;100.00;101310.59;2079948;28;20038;-73
2022/10/14 01:01:19;;;;;;;81.47;49.03;;;;;;;11.90;100.00;101306.97;2087895;28;20113;-73
2022/10/14 01:02:21;;;;;;;87.57;49.75;;;;;;;11.90;100.00;101315.00;2085772;28;20042;-74
2022/10/14 01:03:23;;;;;;;83.82;51.03;;;;;;;11.89;100.00;101308.78;2079551;28;20104;-73
2022/10/14 01:04:25;;;;;;;83.57;52.95;;;;;;;11.90;100.00;101309.66;2079120;28;22980;-73
2022/10/14 01:05:35;;;;;;;79.00;47.25;;;;;;;11.90;100.00;101310.59;2071079;28;29757;-73
2022/10/14 01:07:11;;;;;;;82.80;49.70;;;;;;;11.90;100.00;101309.66;2078838;28;29541;-73
2022/10/14 01:08:59;;;;;;;84.90;52.03;;;;;;;11.88;100.00;101306.13;2079989;28;20898;-74
2022/10/14 01:10:49;;;;;;;77.95;49.83;;;;;;;11.87;100.00;101305.25;2046418;28;30081;-74
2022/10/14 01:12:36;;;;;;;86.20;52.55;;;;;;;11.88;100.00;101303.44;2076431;28;34610;-75
2022/10/14 01:13:49;;;;;;;86.22;51.45;;;;;;;11.87;100.00;101307.06;2063250;28;20047;-73
2022/10/14 01:15:20;;;;;;;86.43;52.55;;;;;;;11.87;100.00;101309.75;2087744;28;20925;-74
2022/10/14 01:16:36;;;;;;;81.85;50.25;;;;;;;11.87;100.00;101309.75;2082425;28;20839;-74
2022/10/14 01:18:08;;;;;;;80.32;48.83;;;;;;;11.85;100.00;101307.97;2078948;28;31304;-74
2022/10/14 01:19:48;;;;;;;83.97;49.90;;;;;;;11.85;100.00;101302.59;2079657;28;33249;-73
2022/10/14 01:22:03;;;;;;;87.60;50.50;;;;;;;11.85;100.00;101299.91;2066100;28;32201;-75
2022/10/14 01:23:45;;;;;;;85.15;51.28;;;;;;;11.85;100.00;101297.22;2046425;28;20090;-73
2022/10/14 01:25:19;;;;;;;86.07;52.53;;;;;;;11.85;100.00;101296.34;2052239;28;20042;-73
2022/10/14 01:26:58;;;;;;;90.32;52.85;;;;;;;11.86;100.00;101298.09;2054670;28;20932;-74
2022/10/14 01:28:20;;;;;;;92.63;52.45;;;;;;;11.85;100.00;101296.34;2049343;28;27346;-73
2022/10/14 01:30:00;;;;;;;88.85;52.30;;;;;;;11.85;100.00;101297.22;2073982;28;20073;-73
2022/10/14 01:31:09;;;;;;;85.72;50.67;;;;;;;11.86;100.00;101298.09;2075511;28;20034;-76
2022/10/14 01:32:26;;;;;;;89.30;50.63;;;;;;;11.86;100.00;101292.72;2070981;28;20042;-74
2022/10/14 01:33:40;;;;;;;79.05;45.40;;;;;;;11.85;100.00;101291.88;2067842;28;20254;-74
2022/10/14 01:34:52;;;;;;;91.22;53.80;;;;;;;11.85;100.00;101288.31;2073069;28;20836;-74
2022/10/14 01:36:26;;;;;;;82.70;50.08;;;;;;;11.85;100.00;101299.91;2072443;28;20050;-74
2022/10/14 01:37:35;;;;;;;92.05;53.17;;;;;;;11.83;100.00;101288.34;2079254;28;29860;-74
2022/10/14 01:38:50;;;;;;;94.40;55.70;;;;;;;11.84;100.00;101284.75;2080655;28;20148;-74
2022/10/14 01:40:00;;;;;;;80.07;47.97;;;;;;;11.85;100.00;101288.31;2071593;28;20050;-74
2022/10/14 01:41:17;;;;;;;97.35;56.03;;;;;;;11.85;100.00;101286.50;2072718;28;20054;-74
2022/10/14 01:42:29;;;;;;;93.53;54.38;;;;;;;11.84;100.00;101282.06;2069318;28;20328;-74
2022/10/14 01:43:32;;;;;;;93.82;54.10;;;;;;;11.85;100.00;101282.94;2064105;28;20054;-74
2022/10/14 01:44:39;;;;;;;90.70;52.65;;;;;;;11.85;100.00;101278.44;2057719;28;20865;-74
2022/10/14 01:45:45;;;;;;;90.28;53.75;;;;;;;11.84;100.00;101278.47;2073046;28;20049;-74
2022/10/14 01:46:54;;;;;;;92.13;54.90;;;;;;;11.84;100.00;101279.38;2073252;28;20939;-74
2022/10/14 01:48:00;;;;;;;94.65;54.78;;;;;;;11.83;100.00;101274.91;2074379;28;20043;-74
2022/10/14 01:49:09;;;;;;;92.13;53.97;;;;;;;11.85;100.00;101277.56;2073872;28;20387;-74
2022/10/14 01:50:19;;;;;;;92.18;54.38;;;;;;;11.84;100.00;101273.09;2073190;28;20053;-74
2022/10/14 01:51:34;;;;;;;92.47;53.08;;;;;;;11.83;100.00;101269.56;2074300;28;20136;-74
2022/10/14 01:52:45;;;;;;;94.97;56.13;;;;;;;11.84;100.00;101283.84;2081839;28;34193;-74
2022/10/14 01:53:58;;;;;;;94.40;56.90;;;;;;;11.84;100.00;101278.47;2088350;28;20033;-74
2022/10/14 01:55:06;;;;;;;89.20;54.33;;;;;;;11.83;100.00;101282.97;2088590;28;28706;-74
2022/10/14 01:56:11;;;;;;;91.88;52.92;;;;;;;11.84;100.00;101281.16;2080797;28;20160;-74
2022/10/14 01:57:21;;;;;;;97.95;57.45;;;;;;;11.83;100.00;101288.34;2073699;28;20429;-73
2022/10/14 01:58:27;;;;;;;87.70;53.10;;;;;;;11.83;100.00;101282.97;2072736;28;20703;-74
2022/10/14 01:59:34;;;;;;;98.05;56.78;;;;;;;11.84;100.00;101283.84;2081555;28;20030;-74
2022/10/14 02:00:37;;;;;;;98.55;55.38;;;;;;;11.83;100.00;101279.41;2080300;28;20046;-74
2022/10/14 02:01:39;;;;;;;91.80;53.85;;;;;;;11.82;100.00;101275.81;2079995;28;36274;-73
2022/10/14 02:02:41;;;;;;;88.15;51.88;;;;;;;11.84;100.00;101275.78;2079763;28;32732;-74
2022/10/14 02:03:46;;;;;;;85.80;50.97;;;;;;;11.83;100.00;101277.59;2088953;28;26311;-74
2022/10/14 02:04:48;;;;;;;88.57;54.53;;;;;;;11.83;100.00;101285.66;2080356;28;20875;-74
2022/10/14 02:06:09;;;;;;;91.50;52.58;;;;;;;11.82;100.00;101275.81;2081268;28;20103;-74
2022/10/14 02:07:33;;;;;;;98.93;55.08;;;;;;;11.82;100.00;101274.94;2080331;28;20037;-74
2022/10/14 02:09:08;;;;;;;97.53;55.85;;;;;;;11.81;100.00;101279.44;2082825;28;20042;-74
2022/10/14 02:10:23;;;;;;;93.22;54.28;;;;;;;11.82;100.00;101275.81;2084563;28;25340;-74
2022/10/14 02:11:39;;;;;;;95.75;52.80;;;;;;;11.81;100.00;101271.41;2080042;28;29360;-73
2022/10/14 02:13:29;;;;;;;84.97;51.33;;;;;;;11.82;100.00;101274.94;2066281;28;20819;-75
2022/10/14 02:14:54;;;;;;;97.38;55.20;;;;;;;11.81;100.00;101276.75;2078593;28;28582;-74
2022/10/14 02:16:20;;;;;;;77.47;46.78;;;;;;;11.80;100.00;101274.97;2067106;28;20054;-75
2022/10/14 02:17:41;;;;;;;93.72;54.75;;;;;;;11.79;100.00;101267.88;2078395;28;20045;-73
2022/10/14 02:19:24;;;;;;;96.55;54.30;;;;;;;11.79;100.00;101270.56;2080480;28;20950;-75
2022/10/14 02:21:02;;;;;;;97.90;56.28;;;;;;;11.79;100.00;101266.97;2072004;28;20054;-74
2022/10/14 02:22:26;;;;;;;98.72;55.13;;;;;;;11.79;100.00;101266.97;2085597;28;20034;-74
2022/10/14 02:23:38;;;;;;;99.45;56.13;;;;;;;11.78;100.00;101263.41;2087676;28;27385;-74
2022/10/14 02:24:47;;;;;;;101.65;55.53;;;;;;;11.77;100.00;101260.75;2088186;28;26829;-73
2022/10/14 02:25:51;;;;;;;94.18;54.70;;;;;;;11.77;100.00;101258.97;2086286;28;22211;-74
2022/10/14 02:26:57;;;;;;;98.00;56.65;;;;;;;11.78;100.00;101263.41;2079581;28;20046;-74
2022/10/14 02:28:06;;;;;;;93.20;55.75;;;;;;;11.78;100.00;101259.84;2066940;28;20177;-73
2022/10/14 02:29:11;;;;;;;96.53;56.28;;;;;;;11.78;100.00;101262.53;2065755;28;22337;-74
2022/10/14 02:30:15;;;;;;;89.15;51.22;;;;;;;11.78;100.00;101267.91;2072543;28;20768;-74
2022/10/14 02:31:19;;;;;;;99.82;57.40;;;;;;;11.78;100.00;101262.53;2072203;28;20046;-74
2022/10/14 02:32:27;;;;;;;101.45;59.78;;;;;;;11.77;100.00;101256.28;2064771;28;20050;-74
2022/10/14 02:33:36;;;;;;;105.95;59.38;;;;;;;11.76;100.00;101254.50;2056660;28;20047;-73
2022/10/14 02:34:45;;;;;;;103.15;63.92;;;;;;;11.75;100.00;101257.22;2068088;28;20043;-74
2022/10/14 02:35:50;;;;;;;89.97;55.15;;;;;;;11.74;100.00;101245.63;2071797;28;20042;-74
2022/10/14 02:36:54;;;;;;;108.70;61.38;;;;;;;11.73;100.00;101251.91;2064530;28;25789;-74
2022/10/14 02:37:58;;;;;;;91.75;54.45;;;;;;;11.74;100.00;101250.13;2071899;28;20050;-73
2022/10/14 02:39:00;;;;;;;106.70;58.63;;;;;;;11.75;100.00;101251.88;2072333;28;27361;-73
2022/10/14 02:40:17;;;;;;;105.75;61.47;;;;;;;11.74;100.00;101251.00;2064058;28;20396;-74
2022/10/14 02:41:24;;;;;;;98.50;58.10;;;;;;;11.75;100.00;101251.88;2067885;28;26986;-75
2022/10/14 02:42:27;;;;;;;105.00;57.88;;;;;;;11.75;100.00;101252.75;2071487;28;20047;-74
2022/10/14 02:43:29;;;;;;;98.22;57.08;;;;;;;11.75;100.00;101250.06;2072299;28;20038;-74
2022/10/14 02:44:31;;;;;;;106.20;59.35;;;;;;;11.75;100.00;101246.50;2071194;28;37714;-74
2022/10/14 02:45:33;;;;;;;100.85;60.03;;;;;;;11.74;100.00;101248.31;2071924;28;25496;-74
2022/10/14 02:46:38;;;;;;;102.90;58.03;;;;;;;11.75;100.00;101254.53;2071477;28;25054;-74
2022/10/14 02:47:42;;;;;;;107.15;60.38;;;;;;;11.75;100.00;101250.06;2064892;28;20831;-74
2022/10/14 02:48:44;;;;;;;99.00;57.38;;;;;;;11.75;100.00;101251.88;2072076;28;20031;-74
2022/10/14 02:49:47;;;;;;;95.53;53.78;;;;;;;11.75;100.00;101250.06;2080105;28;20042;-76
2022/10/14 02:50:51;;;;;;;108.40;62.33;;;;;;;11.75;100.00;101249.19;2071441;28;23020;-73
2022/10/14 02:51:56;;;;;;;95.25;56.50;;;;;;;11.74;100.00;101242.94;2072360;28;20669;-74
2022/10/14 02:52:58;;;;;;;92.95;54.38;;;;;;;11.75;100.00;101255.41;2079531;28;20038;-74
2022/10/14 02:54:01;;;;;;;107.75;59.97;;;;;;;11.74;100.00;101245.63;2072054;28;20030;-73
2022/10/14 02:55:03;;;;;;;105.60;59.83;;;;;;;11.74;100.00;101248.31;2071782;28;20811;-74
2022/10/14 02:56:06;;;;;;;100.25;58.75;;;;;;;11.74;100.00;101245.63;2080339;28;20054;-74
2022/10/14 02:57:08;;;;;;;108.50;61.33;;;;;;;11.73;100.00;101243.84;2079875;28;20057;-74
2022/10/14 02:58:10;;;;;;;111.60;62.40;;;;;;;11.73;100.00;101251.91;2084790;28;27552;-74
2022/10/14 02:59:11;;;;;;;96.80;55.63;;;;;;;11.73;100.00;101243.84;2080349;28;25724;-74
2022/10/14 03:00:13;;;;;;;106.40;59.85;;;;;;;11.74;100.00;101244.75;2080029;28;20046;-74
2022/10/14 03:01:16;;;;;;;98.90;57.28;;;;;;;11.73;100.00;101243.84;2071593;28;20077;-73
2022/10/14 03:02:18;;;;;;;104.55;58.75;;;;;;;11.74;100.00;101239.38;2072353;28;20116;-74
2022/10/14 03:03:21;;;;;;;111.50;61.38;;;;;;;11.74;100.00;101250.13;2072206;28;20046;-73
2022/10/14 03:04:23;;;;;;;113.00;62.58;;;;;;;11.73;100.00;101240.28;2080586;28;20041;-73
2022/10/14 03:05:26;;;;;;;112.45;62.05;;;;;;;11.73;100.00;101243.84;2079770;28;20080;-73
2022/10/14 03:06:28;;;;;;;110.38;60.72;;;;;;;11.73;100.00;101232.25;2072166;28;20046;-73
2022/10/14 03:07:33;;;;;;;113.93;59.78;;;;;;;11.73;100.00;101233.13;2072079;28;20116;-73
2022/10/14 03:08:38;;;;;;;106.13;59.70;;;;;;;11.73;100.00;101234.94;2071653;28;20046;-73
2022/10/14 03:09:40;;;;;;;103.88;57.40;;;;;;;11.74;100.00;101237.56;2072588;28;20046;-73
2022/10/14 03:10:49;;;;;;;113.95;62.85;;;;;;;11.74;100.00;101231.34;2072325;28;20169;-73
2022/10/14 03:11:51;;;;;;;114.70;64.00;;;;;;;11.73;100.00;101230.44;2072620;28;20129;-74
2022/10/14 03:12:54;;;;;;;111.47;60.80;;;;;;;11.75;100.00;101230.41;2080157;28;20042;-74
2022/10/14 03:14:08;;;;;;;113.10;63.30;;;;;;;11.73;100.00;101233.13;2088061;28;20890;-73
2022/10/14 03:15:11;;;;;;;117.93;62.92;;;;;;;11.73;100.00;101226.88;2080029;28;20046;-73
2022/10/14 03:16:13;;;;;;;112.75;61.97;;;;;;;11.75;100.00;101231.28;2080112;28;20041;-73
2022/10/14 03:17:18;;;;;;;108.38;59.97;;;;;;;11.75;100.00;101235.78;2079704;28;20046;-73
2022/10/14 03:18:22;;;;;;;116.45;63.20;;;;;;;11.73;100.00;101230.44;2080205;28;20771;-74
2022/10/14 03:19:29;;;;;;;124.53;64.75;;;;;;;11.74;100.00;101236.69;2072325;28;20097;-74
2022/10/14 03:20:31;;;;;;;110.75;62.20;;;;;;;11.73;100.00;101227.75;2079744;28;20053;-74
2022/10/14 03:21:33;;;;;;;120.38;66.35;;;;;;;11.74;100.00;101228.66;2079879;28;20048;-74
2022/10/14 03:22:34;;;;;;;107.03;60.47;;;;;;;11.75;100.00;101225.91;2080158;28;20049;-73
2022/10/14 03:23:36;;;;;;;117.18;64.05;;;;;;;11.74;100.00;101223.28;2064040;28;20090;-73
2022/10/14 03:24:38;;;;;;;123.88;66.25;;;;;;;11.74;100.00;101229.53;2072205;28;20042;-73
2022/10/14 03:26:06;;;;;;;118.78;63.17;;;;;;;11.74;100.00;101231.34;2079277;28;20057;-73
2022/10/14 03:27:14;;;;;;;117.90;65.32;;;;;;;11.74;100.00;101226.84;2080075;28;20701;-74
2022/10/14 03:28:17;;;;;;;120.68;66.40;;;;;;;11.74;100.00;101234.03;2079836;28;20050;-73
2022/10/14 03:29:27;;;;;;;127.75;67.43;;;;;;;11.73;100.00;101233.13;2079703;28;20045;-74
2022/10/14 03:30:36;;;;;;;126.80;68.47;;;;;;;11.74;100.00;101239.38;2079701;28;20042;-74
2022/10/14 03:31:44;;;;;;;125.13;67.03;;;;;;;11.73;100.00;101230.44;2073649;28;20136;-73
2022/10/14 03:33:12;;;;;;;120.30;62.72;;;;;;;11.74;100.00;101232.22;2056615;28;20067;-73
2022/10/14 03:34:38;;;;;;;121.03;63.38;;;;;;;11.75;100.00;101230.41;2080216;28;20111;-73
2022/10/14 03:35:47;;;;;;;119.80;65.40;;;;;;;11.75;100.00;101243.81;2079669;28;20045;-73
2022/10/14 03:36:52;;;;;;;119.82;63.78;;;;;;;11.74;100.00;101239.38;2071940;28;20770;-73
2022/10/14 03:37:55;;;;;;;123.07;63.15;;;;;;;11.75;100.00;101244.69;2071835;28;20064;-73
2022/10/14 03:39:03;;;;;;;129.68;66.22;;;;;;;11.73;100.00;101235.81;2072692;28;20068;-73
2022/10/14 03:40:21;;;;;;;116.60;62.80;;;;;;;11.73;100.00;101227.75;2074705;28;20108;-74
2022/10/14 03:41:25;;;;;;;123.72;67.80;;;;;;;11.75;100.00;101239.31;2072191;28;20136;-73
2022/10/14 03:42:26;;;;;;;120.88;66.40;;;;;;;11.73;100.00;101233.13;2071245;28;20765;-74
2022/10/14 03:43:29;;;;;;;137.18;68.22;;;;;;;11.74;100.00;101242.94;2064215;28;20153;-72
2022/10/14 03:44:33;;;;;;;117.82;63.88;;;;;;;11.75;100.00;101236.63;2072123;28;20054;-73
2022/10/14 03:45:55;;;;;;;120.88;62.72;;;;;;;11.75;100.00;101230.41;2082812;28;20084;-73
2022/10/14 03:46:58;;;;;;;120.90;59.90;;;;;;;11.76;100.00;101232.19;2088032;28;20045;-73
2022/10/14 03:48:04;;;;;;;129.88;65.70;;;;;;;11.76;100.00;101227.69;2080134;28;20085;-74
2022/10/14 03:49:06;;;;;;;124.47;63.63;;;;;;;11.76;100.00;101229.50;2075286;28;23002;-73
2022/10/14 03:50:08;;;;;;;116.40;62.70;;;;;;;11.76;100.00;101234.88;2071462;28;27891;-74
2022/10/14 03:51:16;;;;;;;128.25;68.03;;;;;;;11.76;100.00;101233.06;2072374;28;20923;-73
2022/10/14 03:52:19;;;;;;;119.25;63.00;;;;;;;11.76;100.00;101233.06;2071851;28;20042;-73
2022/10/14 03:53:32;;;;;;;130.82;67.18;;;;;;;11.75;100.00;101236.63;2073187;28;20157;-73
2022/10/14 03:54:36;;;;;;;128.63;64.45;;;;;;;11.76;100.00;101237.53;2071162;28;20108;-74
2022/10/14 03:55:41;;;;;;;123.45;64.30;;;;;;;11.76;100.00;101233.06;2072336;28;20942;-73
2022/10/14 03:56:44;;;;;;;113.93;60.25;;;;;;;11.76;100.00;101230.38;2078982;28;20042;-73
2022/10/14 03:57:46;;;;;;;136.02;68.72;;;;;;;11.76;100.00;101233.06;2073133;28;20816;-73
2022/10/14 03:58:49;;;;;;;130.30;66.25;;;;;;;11.75;100.00;101236.63;2071680;28;20070;-73
2022/10/14 03:59:52;;;;;;;128.52;66.78;;;;;;;11.76;100.00;101229.50;2079586;28;20037;-73
2022/10/14 04:00:55;;;;;;;131.57;67.07;;;;;;;11.76;100.00;101230.38;2087975;28;20079;-73
2022/10/14 04:02:08;;;;;;;129.15;65.53;;;;;;;11.77;100.00;101232.16;2079392;28;20046;-73
2022/10/14 04:03:12;;;;;;;119.60;63.83;;;;;;;11.77;100.00;101228.56;2080241;28;20034;-73
2022/10/14 04:04:16;;;;;;;135.27;67.38;;;;;;;11.77;100.00;101229.47;2080108;28;20057;-73
2022/10/14 04:05:19;;;;;;;116.78;60.50;;;;;;;11.77;100.00;101232.16;2071771;28;20038;-73
2022/10/14 04:06:22;;;;;;;129.85;64.97;;;;;;;11.78;100.00;101233.91;2080203;28;20038;-72
2022/10/14 04:07:31;;;;;;;121.75;60.70;;;;;;;11.78;100.00;101224.97;2079581;28;20058;-73
2022/10/14 04:08:33;;;;;;;138.05;65.28;;;;;;;11.78;100.00;101228.53;2079919;28;20092;-73
2022/10/14 04:09:48;;;;;;;130.10;64.38;;;;;;;11.77;100.00;101224.09;2087448;28;20111;-73
2022/10/14 04:10:57;;;;;;;126.25;64.78;;;;;;;11.78;100.00;101224.97;2088310;28;20103;-73
2022/10/14 04:12:02;;;;;;;130.38;67.22;;;;;;;11.78;100.00;101224.97;2079741;28;20034;-73
2022/10/14 04:13:22;;;;;;;129.90;63.97;;;;;;;11.77;100.00;101229.47;2075300;28;20038;-73
2022/10/14 04:14:25;;;;;;;130.15;61.78;;;;;;;11.78;100.00;101225.84;2079825;28;20149;-72
2022/10/14 04:15:30;;;;;;;131.70;64.30;;;;;;;11.78;100.00;101225.84;2087760;28;20239;-73
2022/10/14 04:16:54;;;;;;;126.47;62.83;;;;;;;11.78;100.00;101227.66;2088043;28;20042;-73
2022/10/14 04:17:56;;;;;;;132.27;62.95;;;;;;;11.78;100.00;101222.28;2079483;28;20123;-74
2022/10/14 04:18:58;;;;;;;138.40;65.50;;;;;;;11.77;100.00;101217.84;2080006;28;20904;-73
2022/10/14 04:20:00;;;;;;;136.20;66.13;;;;;;;11.76;100.00;101225.00;2087843;28;20034;-73
2022/10/14 04:21:05;;;;;;;139.50;67.68;;;;;;;11.76;100.00;101222.31;2079864;28;20041;-73
2022/10/14 04:22:09;;;;;;;134.20;64.63;;;;;;;11.77;100.00;101216.06;2078908;28;21009;-73
2022/10/14 04:23:10;;;;;;;134.02;65.28;;;;;;;11.76;100.00;101213.41;2080271;28;20038;-73
2022/10/14 04:24:14;;;;;;;123.30;60.83;;;;;;;11.77;100.00;101217.84;2079546;28;20050;-73
2022/10/14 04:25:21;;;;;;;142.02;67.60;;;;;;;11.76;100.00;101216.97;2080635;28;20085;-73
2022/10/14 04:26:28;;;;;;;136.80;68.93;;;;;;;11.76;100.00;101211.59;2071091;28;20106;-73
2022/10/14 04:27:30;;;;;;;138.73;68.10;;;;;;;11.76;100.00;101216.97;2072488;28;20105;-73
2022/10/14 04:28:37;;;;;;;140.88;66.72;;;;;;;11.76;100.00;101216.97;2087280;28;20120;-72
2022/10/14 04:29:47;;;;;;;128.45;65.38;;;;;;;11.76;100.00;101211.59;2079749;28;20791;-72
2022/10/14 04:30:58;;;;;;;132.52;64.78;;;;;;;11.77;100.00;101217.84;2072287;28;20038;-72
2022/10/14 04:32:07;;;;;;;128.32;63.85;;;;;;;11.76;100.00;101213.41;2072675;28;20189;-72
2022/10/14 04:33:10;;;;;;;144.95;65.30;;;;;;;11.77;100.00;101208.00;2079671;28;20105;-73
2022/10/14 04:34:12;;;;;;;137.35;67.40;;;;;;;11.77;100.00;101217.84;2071590;28;20046;-72
2022/10/14 04:35:14;;;;;;;135.98;67.00;;;;;;;11.76;100.00;101214.28;2071186;28;20895;-73
2022/10/14 04:36:19;;;;;;;137.52;65.65;;;;;;;11.76;100.00;101216.97;2071988;28;20069;-72
2022/10/14 04:37:21;;;;;;;140.65;66.93;;;;;;;11.76;100.00;101214.28;2071473;28;20046;-73
2022/10/14 04:38:32;;;;;;;129.25;63.58;;;;;;;11.76;100.00;101216.97;2072699;28;20157;-73
2022/10/14 04:39:38;;;;;;;129.43;64.10;;;;;;;11.76;100.00;101211.59;2080524;28;20823;-71
2022/10/14 04:40:44;;;;;;;143.15;68.13;;;;;;;11.76;100.00;101211.59;2079317;28;20034;-72
2022/10/14 04:41:46;;;;;;;132.63;65.32;;;;;;;11.76;100.00;101213.41;2079574;28;20131;-72
2022/10/14 04:42:57;;;;;;;127.18;65.80;;;;;;;11.76;100.00;101210.72;2079892;28;20934;-73
2022/10/14 04:44:07;;;;;;;134.07;65.35;;;;;;;11.75;100.00;101215.19;2080486;28;20054;-72
2022/10/14 04:45:16;;;;;;;132.05;65.28;;;;;;;11.75;100.00;101212.50;2079420;28;20943;-73
2022/10/14 04:46:26;;;;;;;134.95;65.28;;;;;;;11.76;100.00;101211.59;2072579;28;20077;-73
2022/10/14 04:47:31;;;;;;;143.15;67.30;;;;;;;11.75;100.00;101209.81;2071450;28;20128;-73
2022/10/14 04:48:35;;;;;;;145.57;67.07;;;;;;;11.77;100.00;101210.69;2080379;28;20047;-73
2022/10/14 04:49:41;;;;;;;132.52;65.68;;;;;;;11.76;100.00;101210.72;2079038;28;20089;-73
2022/10/14 04:50:51;;;;;;;136.63;65.72;;;;;;;11.75;100.00;101215.19;2080517;28;20042;-73
2022/10/14 04:52:05;;;;;;;143.60;67.78;;;;;;;11.76;100.00;101210.72;2079605;28;21014;-73
2022/10/14 04:53:22;;;;;;;134.40;67.00;;;;;;;11.75;100.00;101212.50;2072874;28;20201;-73
2022/10/14 04:54:46;;;;;;;121.13;60.28;;;;;;;11.75;100.00;101215.19;2079199;28;21021;-73
2022/10/14 04:55:48;;;;;;;131.02;62.47;;;;;;;11.75;100.00;101211.63;2078937;28;20958;-73
2022/10/14 04:56:51;;;;;;;145.40;65.38;;;;;;;11.75;100.00;101203.56;2079026;28;20172;-73
2022/10/14 04:57:53;;;;;;;139.45;64.88;;;;;;;11.75;100.00;101211.63;2078995;28;20104;-73
2022/10/14 04:58:55;;;;;;;148.75;68.97;;;;;;;11.76;100.00;101211.59;2071414;28;20189;-73
2022/10/14 05:00:07;;;;;;;144.98;68.35;;;;;;;11.75;100.00;101209.81;2087454;28;20053;-73
2022/10/14 05:01:34;;;;;;;132.35;64.20;;;;;;;11.76;100.00;101216.97;2087674;28;20045;-72
2022/10/14 05:02:36;;;;;;;122.07;59.85;;;;;;;11.77;100.00;101218.75;2079255;28;20174;-72
2022/10/14 05:03:38;;;;;;;140.88;67.28;;;;;;;11.77;100.00;101218.75;2079369;28;20064;-73
2022/10/14 05:04:39;;;;;;;138.35;62.97;;;;;;;11.75;100.00;101215.19;2079504;28;20109;-72
2022/10/14 05:05:43;;;;;;;146.23;65.88;;;;;;;11.75;100.00;101217.88;2071265;28;20913;-73
2022/10/14 05:06:45;;;;;;;127.35;64.40;;;;;;;11.76;100.00;101218.78;2071493;28;20038;-73
2022/10/14 05:07:49;;;;;;;139.00;67.30;;;;;;;11.76;100.00;101211.59;2070795;28;20046;-73